Ozgur Aksoy — 9HA2587 — position and weather

sailwx.info

Track history (hours):
 
Tides and Currents Weather Stations Pressure Air Temp Water Temp Dewpoint Dewpoint Depression Visibility Wind Speed Wind Dir Waves Ship Positions

Ozgur Aksoy

Last reported at 2015-Jan-27 02:33 UTC. Time now 2015-Jan-27 03:24 UTC.
Position N 56°40' E 011°47'.

Length 196 m; draft 10.9 m.

Type: Cargo ship. MMSI: 248950000.

Date/timePositionNaut miles runAvg speedWind from/ knotsBaromVisibWave heightAir tempDewpointWater temp
2015-Jan-27 02:33N 56°40' E 011°47'1111.3
2015-Jan-27 01:33N 56°51' E 011°48'1212.4
2015-Jan-27 00:33N 57°03' E 011°41'1212.5
2015-Jan-26 23:33N 57°15' E 011°32'1212.3
2015-Jan-26 22:33N 57°26' E 011°25'1212.2
2015-Jan-26 21:33N 57°35' E 011°09'1212.3
2015-Jan-26 20:33N 57°44' E 010°52'1212.2
2015-Jan-26 19:33N 57°49' E 010°32'18112.0
2015-Jan-26 04:33N 55°41' E 006°39'1211.7
2015-Jan-26 03:33N 55°31' E 006°29'8512.1
2015-Jan-25 20:33N 54°20' E 005°10'1211.9
2015-Jan-25 19:33N 54°11' E 004°57'1211.5
2015-Jan-25 18:30N 54°01' E 004°45'8510.7
2015-Jan-25 10:33N 52°52' E 003°20'1411.5
2015-Jan-25 09:20N 52°39' E 003°16'1112.2
2015-Jan-25 08:26N 52°28' E 003°13'1112.7
2015-Jan-25 07:33N 52°17' E 003°10'1212.4
2015-Jan-25 06:33N 52°05' E 003°03'1313.4
2015-Jan-25 05:33N 51°55' E 002°49'1413.5
2015-Jan-25 04:32N 51°44' E 002°35'1313.5
2015-Jan-25 03:34N 51°34' E 002°22'1312.6
2015-Jan-25 02:32N 51°23' E 002°11'1111.0
2015-Jan-25 01:34N 51°13' E 002°03'1110.9
2015-Jan-25 00:34N 51°08' E 001°48'9 8.5
2015-Jan-24 23:34N 51°02' E 001°39'8 7.8
2015-Jan-24 22:33N 50°56' E 001°30'8 7.6
2015-Jan-24 21:34N 50°49' E 001°25'  
Track history (hours):
 
Tides and Currents Weather Stations Pressure Air Temp Water Temp Dewpoint Dewpoint Depression Visibility Wind Speed Wind Dir Waves Ship Positions

Ozgur Aksoy

Last reported at 2015-Jan-27 02:33 UTC. Time now 2015-Jan-27 03:24 UTC.
Position N 56°40' E 011°47'.

Length 196 m; draft 10.9 m.

Type: Cargo ship. MMSI: 248950000.

Date/timePositionNaut miles runAvg speedWind from/ knotsBaromVisibWave heightAir tempDewpointWater temp
2015-Jan-27 02:33N 56°40' E 011°47'1111.3
2015-Jan-27 01:33N 56°51' E 011°48'1212.4
2015-Jan-27 00:33N 57°03' E 011°41'1212.5
2015-Jan-26 23:33N 57°15' E 011°32'1212.3
2015-Jan-26 22:33N 57°26' E 011°25'1212.2
2015-Jan-26 21:33N 57°35' E 011°09'1212.3
2015-Jan-26 20:33N 57°44' E 010°52'1212.2
2015-Jan-26 19:33N 57°49' E 010°32'18112.0
2015-Jan-26 04:33N 55°41' E 006°39'1211.7
2015-Jan-26 03:33N 55°31' E 006°29'8512.1
2015-Jan-25 20:33N 54°20' E 005°10'1211.9
2015-Jan-25 19:33N 54°11' E 004°57'1211.5
2015-Jan-25 18:30N 54°01' E 004°45'8510.7
2015-Jan-25 10:33N 52°52' E 003°20'1411.5
2015-Jan-25 09:20N 52°39' E 003°16'1112.2
2015-Jan-25 08:26N 52°28' E 003°13'1112.7
2015-Jan-25 07:33N 52°17' E 003°10'1212.4
2015-Jan-25 06:33N 52°05' E 003°03'1313.4
2015-Jan-25 05:33N 51°55' E 002°49'1413.5
2015-Jan-25 04:32N 51°44' E 002°35'1313.5
2015-Jan-25 03:34N 51°34' E 002°22'1312.6
2015-Jan-25 02:32N 51°23' E 002°11'1111.0
2015-Jan-25 01:34N 51°13' E 002°03'1110.9
2015-Jan-25 00:34N 51°08' E 001°48'9 8.5
2015-Jan-24 23:34N 51°02' E 001°39'8 7.8
2015-Jan-24 22:33N 50°56' E 001°30'8 7.6
2015-Jan-24 21:34N 50°49' E 001°25'  

Dump ship's entire track history